sensor_id;sensor_type;location;lat;lon;timestamp;P1;durP1;ratioP1;P2;durP2;ratioP2
17510;SDS011;8873;48.818;9.422;2022-09-28T00:02:00;3.55;;;1.92;;
17510;SDS011;8873;48.818;9.422;2022-09-28T00:04:28;3.20;;;1.90;;
17510;SDS011;8873;48.818;9.422;2022-09-28T00:06:55;1.75;;;1.65;;
17510;SDS011;8873;48.818;9.422;2022-09-28T00:09:25;1.90;;;1.80;;
17510;SDS011;8873;48.818;9.422;2022-09-28T00:11:53;2.72;;;1.88;;
17510;SDS011;8873;48.818;9.422;2022-09-28T00:14:22;4.85;;;2.10;;
17510;SDS011;8873;48.818;9.422;2022-09-28T00:16:51;2.70;;;1.90;;
17510;SDS011;8873;48.818;9.422;2022-09-28T00:19:19;4.80;;;1.70;;
17510;SDS011;8873;48.818;9.422;2022-09-28T00:21:47;3.08;;;2.08;;
17510;SDS011;8873;48.818;9.422;2022-09-28T00:24:14;3.08;;;2.05;;
17510;SDS011;8873;48.818;9.422;2022-09-28T00:26:44;2.63;;;1.90;;
17510;SDS011;8873;48.818;9.422;2022-09-28T00:29:16;1.95;;;1.75;;
17510;SDS011;8873;48.818;9.422;2022-09-28T00:31:44;1.77;;;1.67;;
17510;SDS011;8873;48.818;9.422;2022-09-28T00:34:12;1.83;;;1.60;;
17510;SDS011;8873;48.818;9.422;2022-09-28T00:36:41;1.88;;;1.60;;
17510;SDS011;8873;48.818;9.422;2022-09-28T00:39:12;2.47;;;1.40;;
17510;SDS011;8873;48.818;9.422;2022-09-28T00:41:40;1.60;;;1.50;;
17510;SDS011;8873;48.818;9.422;2022-09-28T00:46:56;1.50;;;1.50;;
17510;SDS011;8873;48.818;9.422;2022-09-28T00:49:26;4.13;;;1.50;;
17510;SDS011;8873;48.818;9.422;2022-09-28T00:51:58;2.00;;;1.35;;
17510;SDS011;8873;48.818;9.422;2022-09-28T00:54:26;1.95;;;1.38;;
17510;SDS011;8873;48.818;9.422;2022-09-28T00:56:53;1.75;;;1.65;;
17510;SDS011;8873;48.818;9.422;2022-09-28T00:59:21;1.70;;;1.60;;
17510;SDS011;8873;48.818;9.422;2022-09-28T01:01:50;1.52;;;1.42;;
17510;SDS011;8873;48.818;9.422;2022-09-28T01:04:19;1.88;;;1.42;;
17510;SDS011;8873;48.818;9.422;2022-09-28T01:06:53;2.28;;;1.80;;
17510;SDS011;8873;48.818;9.422;2022-09-28T01:09:22;2.00;;;1.50;;
17510;SDS011;8873;48.818;9.422;2022-09-28T01:11:51;4.00;;;1.83;;
17510;SDS011;8873;48.818;9.422;2022-09-28T01:14:18;5.90;;;1.70;;
17510;SDS011;8873;48.818;9.422;2022-09-28T01:16:48;3.80;;;1.38;;
17510;SDS011;8873;48.818;9.422;2022-09-28T01:19:27;3.33;;;1.40;;
17510;SDS011;8873;48.818;9.422;2022-09-28T01:21:58;2.90;;;1.40;;
17510;SDS011;8873;48.818;9.422;2022-09-28T01:24:37;3.55;;;1.27;;
17510;SDS011;8873;48.818;9.422;2022-09-28T01:27:10;4.18;;;1.50;;
17510;SDS011;8873;48.818;9.422;2022-09-28T01:29:44;5.03;;;1.50;;
17510;SDS011;8873;48.818;9.422;2022-09-28T01:32:14;2.53;;;1.40;;
17510;SDS011;8873;48.818;9.422;2022-09-28T01:34:45;1.67;;;1.55;;
17510;SDS011;8873;48.818;9.422;2022-09-28T01:37:13;2.53;;;1.73;;
17510;SDS011;8873;48.818;9.422;2022-09-28T01:39:43;3.40;;;1.70;;
17510;SDS011;8873;48.818;9.422;2022-09-28T01:42:14;6.15;;;1.80;;
17510;SDS011;8873;48.818;9.422;2022-09-28T01:44:43;2.65;;;1.80;;
17510;SDS011;8873;48.818;9.422;2022-09-28T01:47:11;6.43;;;1.80;;
17510;SDS011;8873;48.818;9.422;2022-09-28T01:49:40;8.68;;;1.75;;
17510;SDS011;8873;48.818;9.422;2022-09-28T01:52:11;2.65;;;1.88;;
17510;SDS011;8873;48.818;9.422;2022-09-28T01:54:40;6.97;;;1.98;;
17510;SDS011;8873;48.818;9.422;2022-09-28T01:57:10;4.50;;;1.90;;
17510;SDS011;8873;48.818;9.422;2022-09-28T01:59:42;4.57;;;2.55;;
17510;SDS011;8873;48.818;9.422;2022-09-28T02:02:11;7.05;;;2.90;;
17510;SDS011;8873;48.818;9.422;2022-09-28T02:04:41;5.82;;;2.75;;
17510;SDS011;8873;48.818;9.422;2022-09-28T02:07:12;6.47;;;1.92;;
17510;SDS011;8873;48.818;9.422;2022-09-28T02:09:43;15.02;;;2.80;;
17510;SDS011;8873;48.818;9.422;2022-09-28T02:12:12;8.57;;;3.03;;
17510;SDS011;8873;48.818;9.422;2022-09-28T02:14:43;7.38;;;2.38;;
17510;SDS011;8873;48.818;9.422;2022-09-28T02:17:12;14.82;;;3.70;;
17510;SDS011;8873;48.818;9.422;2022-09-28T02:19:41;11.90;;;3.42;;
17510;SDS011;8873;48.818;9.422;2022-09-28T02:22:11;10.13;;;2.10;;
17510;SDS011;8873;48.818;9.422;2022-09-28T02:24:44;7.03;;;1.70;;
17510;SDS011;8873;48.818;9.422;2022-09-28T02:27:17;12.10;;;3.10;;
17510;SDS011;8873;48.818;9.422;2022-09-28T02:29:48;4.50;;;2.10;;
17510;SDS011;8873;48.818;9.422;2022-09-28T02:32:16;3.55;;;1.70;;
17510;SDS011;8873;48.818;9.422;2022-09-28T02:34:44;7.03;;;1.67;;
17510;SDS011;8873;48.818;9.422;2022-09-28T02:37:11;7.25;;;2.65;;
17510;SDS011;8873;48.818;9.422;2022-09-28T02:39:39;4.47;;;1.98;;
17510;SDS011;8873;48.818;9.422;2022-09-28T02:42:09;6.18;;;1.80;;
17510;SDS011;8873;48.818;9.422;2022-09-28T02:44:49;6.72;;;2.00;;
17510;SDS011;8873;48.818;9.422;2022-09-28T02:47:25;5.90;;;2.17;;
17510;SDS011;8873;48.818;9.422;2022-09-28T02:49:54;10.30;;;2.20;;
17510;SDS011;8873;48.818;9.422;2022-09-28T02:52:31;2.40;;;1.50;;
17510;SDS011;8873;48.818;9.422;2022-09-28T02:55:07;7.28;;;2.10;;
17510;SDS011;8873;48.818;9.422;2022-09-28T02:57:43;5.03;;;1.60;;
17510;SDS011;8873;48.818;9.422;2022-09-28T03:00:15;4.25;;;1.85;;
17510;SDS011;8873;48.818;9.422;2022-09-28T03:02:52;5.38;;;1.70;;
17510;SDS011;8873;48.818;9.422;2022-09-28T03:05:24;3.25;;;2.00;;
17510;SDS011;8873;48.818;9.422;2022-09-28T03:07:56;4.72;;;1.42;;
17510;SDS011;8873;48.818;9.422;2022-09-28T03:10:27;8.15;;;1.80;;
17510;SDS011;8873;48.818;9.422;2022-09-28T03:12:57;4.50;;;1.88;;
17510;SDS011;8873;48.818;9.422;2022-09-28T03:15:27;6.60;;;1.95;;
17510;SDS011;8873;48.818;9.422;2022-09-28T03:17:55;6.70;;;1.60;;
17510;SDS011;8873;48.818;9.422;2022-09-28T03:20:23;7.10;;;1.55;;
17510;SDS011;8873;48.818;9.422;2022-09-28T03:22:51;7.72;;;1.75;;
17510;SDS011;8873;48.818;9.422;2022-09-28T03:25:38;1.98;;;1.45;;
17510;SDS011;8873;48.818;9.422;2022-09-28T03:28:06;3.25;;;1.58;;
17510;SDS011;8873;48.818;9.422;2022-09-28T03:30:35;3.40;;;1.65;;
17510;SDS011;8873;48.818;9.422;2022-09-28T03:33:02;5.82;;;1.70;;
17510;SDS011;8873;48.818;9.422;2022-09-28T03:35:32;7.53;;;1.52;;
17510;SDS011;8873;48.818;9.422;2022-09-28T03:37:59;1.67;;;1.30;;
17510;SDS011;8873;48.818;9.422;2022-09-28T03:40:27;7.13;;;1.58;;
17510;SDS011;8873;48.818;9.422;2022-09-28T03:42:55;4.20;;;1.60;;
17510;SDS011;8873;48.818;9.422;2022-09-28T03:45:22;4.97;;;1.77;;
17510;SDS011;8873;48.818;9.422;2022-09-28T03:47:51;6.10;;;1.60;;
17510;SDS011;8873;48.818;9.422;2022-09-28T03:50:19;4.25;;;1.70;;
17510;SDS011;8873;48.818;9.422;2022-09-28T03:52:47;2.63;;;1.70;;
17510;SDS011;8873;48.818;9.422;2022-09-28T03:55:14;5.93;;;1.90;;
17510;SDS011;8873;48.818;9.422;2022-09-28T03:57:42;4.07;;;1.77;;
17510;SDS011;8873;48.818;9.422;2022-09-28T04:00:10;4.72;;;1.67;;
17510;SDS011;8873;48.818;9.422;2022-09-28T04:02:38;3.92;;;1.65;;
17510;SDS011;8873;48.818;9.422;2022-09-28T04:05:07;6.07;;;1.92;;
17510;SDS011;8873;48.818;9.422;2022-09-28T04:07:35;5.60;;;1.60;;
17510;SDS011;8873;48.818;9.422;2022-09-28T04:10:02;6.93;;;1.85;;
17510;SDS011;8873;48.818;9.422;2022-09-28T04:12:30;4.53;;;1.50;;
17510;SDS011;8873;48.818;9.422;2022-09-28T04:14:57;5.13;;;1.70;;
17510;SDS011;8873;48.818;9.422;2022-09-28T04:17:25;1.15;;;1.10;;
17510;SDS011;8873;48.818;9.422;2022-09-28T04:19:53;1.20;;;1.10;;
17510;SDS011;8873;48.818;9.422;2022-09-28T04:22:22;1.60;;;1.00;;
17510;SDS011;8873;48.818;9.422;2022-09-28T04:24:49;2.13;;;1.10;;
17510;SDS011;8873;48.818;9.422;2022-09-28T04:27:17;2.58;;;1.33;;
17510;SDS011;8873;48.818;9.422;2022-09-28T04:30:01;5.00;;;1.40;;
17510;SDS011;8873;48.818;9.422;2022-09-28T04:32:29;1.20;;;1.20;;
17510;SDS011;8873;48.818;9.422;2022-09-28T04:34:56;12.85;;;1.80;;
17510;SDS011;8873;48.818;9.422;2022-09-28T04:37:25;6.03;;;1.42;;
17510;SDS011;8873;48.818;9.422;2022-09-28T04:39:56;2.97;;;1.60;;
17510;SDS011;8873;48.818;9.422;2022-09-28T04:42:23;2.33;;;1.20;;
17510;SDS011;8873;48.818;9.422;2022-09-28T04:44:51;1.52;;;1.38;;
17510;SDS011;8873;48.818;9.422;2022-09-28T04:47:18;3.20;;;1.40;;
17510;SDS011;8873;48.818;9.422;2022-09-28T04:49:49;1.58;;;1.48;;
17510;SDS011;8873;48.818;9.422;2022-09-28T04:52:16;3.65;;;1.80;;
17510;SDS011;8873;48.818;9.422;2022-09-28T04:54:45;5.30;;;1.80;;
17510;SDS011;8873;48.818;9.422;2022-09-28T04:57:13;3.70;;;1.90;;
17510;SDS011;8873;48.818;9.422;2022-09-28T04:59:41;4.85;;;2.15;;
17510;SDS011;8873;48.818;9.422;2022-09-28T05:02:08;2.67;;;2.47;;
17510;SDS011;8873;48.818;9.422;2022-09-28T05:04:37;2.80;;;2.50;;
17510;SDS011;8873;48.818;9.422;2022-09-28T05:07:04;10.52;;;3.72;;
17510;SDS011;8873;48.818;9.422;2022-09-28T05:09:32;7.80;;;2.67;;
17510;SDS011;8873;48.818;9.422;2022-09-28T05:12:05;7.68;;;3.05;;
17510;SDS011;8873;48.818;9.422;2022-09-28T05:14:32;5.20;;;3.00;;
17510;SDS011;8873;48.818;9.422;2022-09-28T05:17:00;5.50;;;2.40;;
17510;SDS011;8873;48.818;9.422;2022-09-28T05:19:27;3.00;;;2.35;;
17510;SDS011;8873;48.818;9.422;2022-09-28T05:21:55;6.00;;;2.80;;
17510;SDS011;8873;48.818;9.422;2022-09-28T05:24:23;6.45;;;2.90;;
17510;SDS011;8873;48.818;9.422;2022-09-28T05:26:53;7.38;;;2.58;;
17510;SDS011;8873;48.818;9.422;2022-09-28T05:29:22;5.13;;;2.40;;
17510;SDS011;8873;48.818;9.422;2022-09-28T05:31:55;7.38;;;2.50;;
17510;SDS011;8873;48.818;9.422;2022-09-28T05:34:22;13.23;;;3.10;;
17510;SDS011;8873;48.818;9.422;2022-09-28T05:36:50;6.97;;;3.08;;
17510;SDS011;8873;48.818;9.422;2022-09-28T05:39:18;8.18;;;3.63;;
17510;SDS011;8873;48.818;9.422;2022-09-28T05:41:45;7.45;;;3.70;;
17510;SDS011;8873;48.818;9.422;2022-09-28T05:44:13;8.52;;;3.47;;
17510;SDS011;8873;48.818;9.422;2022-09-28T05:46:42;11.15;;;3.72;;
17510;SDS011;8873;48.818;9.422;2022-09-28T05:49:09;10.10;;;3.20;;
17510;SDS011;8873;48.818;9.422;2022-09-28T05:51:38;7.95;;;3.25;;
17510;SDS011;8873;48.818;9.422;2022-09-28T05:54:05;8.80;;;3.55;;
17510;SDS011;8873;48.818;9.422;2022-09-28T05:56:33;8.20;;;3.70;;
17510;SDS011;8873;48.818;9.422;2022-09-28T05:59:01;7.68;;;3.70;;
17510;SDS011;8873;48.818;9.422;2022-09-28T06:01:30;6.38;;;3.45;;
17510;SDS011;8873;48.818;9.422;2022-09-28T06:04:00;9.18;;;3.30;;
17510;SDS011;8873;48.818;9.422;2022-09-28T06:06:27;8.15;;;3.10;;
17510;SDS011;8873;48.818;9.422;2022-09-28T06:08:55;11.80;;;3.33;;
17510;SDS011;8873;48.818;9.422;2022-09-28T06:11:23;8.98;;;4.68;;
17510;SDS011;8873;48.818;9.422;2022-09-28T06:13:52;10.98;;;3.53;;
17510;SDS011;8873;48.818;9.422;2022-09-28T06:16:20;9.57;;;3.58;;
17510;SDS011;8873;48.818;9.422;2022-09-28T06:18:49;8.98;;;3.47;;
17510;SDS011;8873;48.818;9.422;2022-09-28T06:21:18;5.05;;;3.33;;
17510;SDS011;8873;48.818;9.422;2022-09-28T06:23:48;7.97;;;3.80;;
17510;SDS011;8873;48.818;9.422;2022-09-28T06:26:15;5.18;;;3.10;;
17510;SDS011;8873;48.818;9.422;2022-09-28T06:28:43;5.78;;;2.60;;
17510;SDS011;8873;48.818;9.422;2022-09-28T06:31:11;5.72;;;3.03;;
17510;SDS011;8873;48.818;9.422;2022-09-28T06:33:38;3.92;;;3.05;;
17510;SDS011;8873;48.818;9.422;2022-09-28T06:36:09;3.85;;;2.70;;
17510;SDS011;8873;48.818;9.422;2022-09-28T06:38:41;6.40;;;2.90;;
17510;SDS011;8873;48.818;9.422;2022-09-28T06:41:09;3.53;;;2.95;;
17510;SDS011;8873;48.818;9.422;2022-09-28T06:43:37;4.97;;;2.75;;
17510;SDS011;8873;48.818;9.422;2022-09-28T06:46:05;5.95;;;2.72;;
17510;SDS011;8873;48.818;9.422;2022-09-28T06:48:33;4.57;;;2.90;;
17510;SDS011;8873;48.818;9.422;2022-09-28T06:51:01;3.92;;;2.90;;
17510;SDS011;8873;48.818;9.422;2022-09-28T06:53:28;8.65;;;3.50;;
17510;SDS011;8873;48.818;9.422;2022-09-28T06:55:58;5.40;;;3.30;;
17510;SDS011;8873;48.818;9.422;2022-09-28T06:58:30;3.90;;;2.72;;
17510;SDS011;8873;48.818;9.422;2022-09-28T07:01:01;9.95;;;3.47;;
17510;SDS011;8873;48.818;9.422;2022-09-28T07:03:29;15.40;;;3.88;;
17510;SDS011;8873;48.818;9.422;2022-09-28T07:05:56;10.75;;;4.22;;
17510;SDS011;8873;48.818;9.422;2022-09-28T07:08:24;10.75;;;4.85;;
17510;SDS011;8873;48.818;9.422;2022-09-28T07:10:54;8.73;;;4.53;;
17510;SDS011;8873;48.818;9.422;2022-09-28T07:13:24;7.82;;;4.57;;
17510;SDS011;8873;48.818;9.422;2022-09-28T07:16:13;6.03;;;3.78;;
17510;SDS011;8873;48.818;9.422;2022-09-28T07:18:41;8.65;;;3.28;;
17510;SDS011;8873;48.818;9.422;2022-09-28T07:21:08;8.57;;;4.03;;
17510;SDS011;8873;48.818;9.422;2022-09-28T07:23:50;8.70;;;3.85;;
17510;SDS011;8873;48.818;9.422;2022-09-28T07:26:19;9.10;;;3.80;;
17510;SDS011;8873;48.818;9.422;2022-09-28T07:28:51;12.10;;;4.38;;
17510;SDS011;8873;48.818;9.422;2022-09-28T07:31:21;9.90;;;4.90;;
17510;SDS011;8873;48.818;9.422;2022-09-28T07:33:50;9.75;;;4.63;;
17510;SDS011;8873;48.818;9.422;2022-09-28T07:36:19;13.57;;;5.40;;
17510;SDS011;8873;48.818;9.422;2022-09-28T07:38:48;11.88;;;4.70;;
17510;SDS011;8873;48.818;9.422;2022-09-28T07:41:22;14.13;;;6.05;;
17510;SDS011;8873;48.818;9.422;2022-09-28T07:44:01;17.02;;;5.72;;
17510;SDS011;8873;48.818;9.422;2022-09-28T07:46:31;15.27;;;4.80;;
17510;SDS011;8873;48.818;9.422;2022-09-28T07:48:59;16.98;;;5.35;;
17510;SDS011;8873;48.818;9.422;2022-09-28T07:51:39;10.18;;;5.18;;
17510;SDS011;8873;48.818;9.422;2022-09-28T07:54:10;13.30;;;4.93;;
17510;SDS011;8873;48.818;9.422;2022-09-28T07:56:37;11.05;;;4.57;;
17510;SDS011;8873;48.818;9.422;2022-09-28T07:59:06;9.88;;;5.70;;
17510;SDS011;8873;48.818;9.422;2022-09-28T08:01:34;8.68;;;4.53;;
17510;SDS011;8873;48.818;9.422;2022-09-28T08:04:04;8.50;;;4.47;;
17510;SDS011;8873;48.818;9.422;2022-09-28T08:06:32;10.25;;;4.40;;
17510;SDS011;8873;48.818;9.422;2022-09-28T08:09:00;13.55;;;5.25;;
17510;SDS011;8873;48.818;9.422;2022-09-28T08:11:27;11.00;;;4.13;;
17510;SDS011;8873;48.818;9.422;2022-09-28T08:13:56;6.85;;;4.10;;
17510;SDS011;8873;48.818;9.422;2022-09-28T08:16:27;11.10;;;4.90;;
17510;SDS011;8873;48.818;9.422;2022-09-28T08:18:55;12.88;;;4.97;;
17510;SDS011;8873;48.818;9.422;2022-09-28T08:21:23;8.90;;;4.38;;
17510;SDS011;8873;48.818;9.422;2022-09-28T08:24:08;14.77;;;5.13;;
17510;SDS011;8873;48.818;9.422;2022-09-28T08:26:39;13.05;;;5.60;;
17510;SDS011;8873;48.818;9.422;2022-09-28T08:29:07;14.68;;;5.47;;
17510;SDS011;8873;48.818;9.422;2022-09-28T08:31:36;11.00;;;4.53;;
17510;SDS011;8873;48.818;9.422;2022-09-28T08:34:03;9.48;;;4.53;;
17510;SDS011;8873;48.818;9.422;2022-09-28T08:36:31;11.30;;;4.85;;
17510;SDS011;8873;48.818;9.422;2022-09-28T08:38:59;9.55;;;3.88;;
17510;SDS011;8873;48.818;9.422;2022-09-28T08:41:30;11.85;;;4.97;;
17510;SDS011;8873;48.818;9.422;2022-09-28T08:44:12;11.88;;;4.43;;
17510;SDS011;8873;48.818;9.422;2022-09-28T08:46:44;11.20;;;4.78;;
17510;SDS011;8873;48.818;9.422;2022-09-28T08:49:14;10.90;;;4.30;;
17510;SDS011;8873;48.818;9.422;2022-09-28T08:51:54;5.55;;;4.47;;
17510;SDS011;8873;48.818;9.422;2022-09-28T08:54:24;6.25;;;4.15;;
17510;SDS011;8873;48.818;9.422;2022-09-28T08:56:56;6.88;;;3.58;;
17510;SDS011;8873;48.818;9.422;2022-09-28T08:59:26;9.35;;;3.40;;
17510;SDS011;8873;48.818;9.422;2022-09-28T09:01:57;7.93;;;4.10;;
17510;SDS011;8873;48.818;9.422;2022-09-28T09:04:25;5.07;;;3.30;;
17510;SDS011;8873;48.818;9.422;2022-09-28T09:07:02;8.13;;;3.40;;
17510;SDS011;8873;48.818;9.422;2022-09-28T09:09:37;7.03;;;3.08;;
17510;SDS011;8873;48.818;9.422;2022-09-28T09:12:08;6.93;;;3.08;;
17510;SDS011;8873;48.818;9.422;2022-09-28T09:17:24;5.50;;;2.85;;
17510;SDS011;8873;48.818;9.422;2022-09-28T09:19:53;5.18;;;2.60;;
17510;SDS011;8873;48.818;9.422;2022-09-28T09:22:24;5.53;;;2.80;;
17510;SDS011;8873;48.818;9.422;2022-09-28T09:24:56;4.88;;;2.30;;
17510;SDS011;8873;48.818;9.422;2022-09-28T09:27:33;2.67;;;2.25;;
17510;SDS011;8873;48.818;9.422;2022-09-28T09:30:03;3.30;;;2.60;;
17510;SDS011;8873;48.818;9.422;2022-09-28T09:32:37;3.55;;;2.10;;
17510;SDS011;8873;48.818;9.422;2022-09-28T09:35:12;5.30;;;2.40;;
17510;SDS011;8873;48.818;9.422;2022-09-28T09:37:52;4.88;;;2.60;;
17510;SDS011;8873;48.818;9.422;2022-09-28T09:40:27;8.13;;;2.40;;
17510;SDS011;8873;48.818;9.422;2022-09-28T09:43:03;2.88;;;2.28;;
17510;SDS011;8873;48.818;9.422;2022-09-28T09:45:41;2.70;;;2.30;;
17510;SDS011;8873;48.818;9.422;2022-09-28T09:48:13;2.13;;;1.98;;
17510;SDS011;8873;48.818;9.422;2022-09-28T09:50:44;5.07;;;2.10;;
17510;SDS011;8873;48.818;9.422;2022-09-28T09:53:14;5.68;;;2.38;;
17510;SDS011;8873;48.818;9.422;2022-09-28T09:55:46;4.10;;;2.08;;
17510;SDS011;8873;48.818;9.422;2022-09-28T09:58:16;3.53;;;2.35;;
17510;SDS011;8873;48.818;9.422;2022-09-28T10:00:45;4.90;;;2.53;;
17510;SDS011;8873;48.818;9.422;2022-09-28T10:03:18;2.90;;;2.20;;
17510;SDS011;8873;48.818;9.422;2022-09-28T10:05:49;2.55;;;1.95;;
17510;SDS011;8873;48.818;9.422;2022-09-28T10:08:17;3.60;;;2.22;;
17510;SDS011;8873;48.818;9.422;2022-09-28T10:10:47;2.53;;;2.10;;
17510;SDS011;8873;48.818;9.422;2022-09-28T10:13:15;5.35;;;1.95;;
17510;SDS011;8873;48.818;9.422;2022-09-28T10:15:42;2.88;;;2.15;;
17510;SDS011;8873;48.818;9.422;2022-09-28T10:18:13;5.57;;;2.30;;
17510;SDS011;8873;48.818;9.422;2022-09-28T10:20:43;5.60;;;2.60;;
17510;SDS011;8873;48.818;9.422;2022-09-28T10:23:12;3.38;;;2.83;;
17510;SDS011;8873;48.818;9.422;2022-09-28T10:25:42;5.97;;;2.40;;
17510;SDS011;8873;48.818;9.422;2022-09-28T10:28:13;4.25;;;2.72;;
17510;SDS011;8873;48.818;9.422;2022-09-28T10:30:43;2.58;;;2.25;;
17510;SDS011;8873;48.818;9.422;2022-09-28T10:33:27;4.85;;;2.22;;
17510;SDS011;8873;48.818;9.422;2022-09-28T10:35:57;5.15;;;2.40;;
17510;SDS011;8873;48.818;9.422;2022-09-28T10:38:25;6.30;;;2.35;;
17510;SDS011;8873;48.818;9.422;2022-09-28T10:40:54;2.83;;;2.20;;
17510;SDS011;8873;48.818;9.422;2022-09-28T10:43:25;3.90;;;2.47;;
17510;SDS011;8873;48.818;9.422;2022-09-28T10:45:58;2.78;;;2.30;;
17510;SDS011;8873;48.818;9.422;2022-09-28T10:48:27;3.95;;;2.28;;
17510;SDS011;8873;48.818;9.422;2022-09-28T10:50:58;3.58;;;2.10;;
17510;SDS011;8873;48.818;9.422;2022-09-28T10:53:26;2.95;;;2.65;;
17510;SDS011;8873;48.818;9.422;2022-09-28T10:55:55;3.95;;;2.28;;
17510;SDS011;8873;48.818;9.422;2022-09-28T10:58:25;5.00;;;2.30;;
17510;SDS011;8873;48.818;9.422;2022-09-28T11:00:57;4.38;;;2.70;;
17510;SDS011;8873;48.818;9.422;2022-09-28T11:03:26;6.45;;;2.40;;
17510;SDS011;8873;48.818;9.422;2022-09-28T11:05:55;2.75;;;2.00;;
17510;SDS011;8873;48.818;9.422;2022-09-28T11:08:26;7.47;;;2.55;;
17510;SDS011;8873;48.818;9.422;2022-09-28T11:11:04;4.43;;;2.17;;
17510;SDS011;8873;48.818;9.422;2022-09-28T11:13:39;3.03;;;2.20;;
17510;SDS011;8873;48.818;9.422;2022-09-28T11:16:08;3.08;;;2.28;;
17510;SDS011;8873;48.818;9.422;2022-09-28T11:18:44;5.20;;;2.53;;
17510;SDS011;8873;48.818;9.422;2022-09-28T11:21:13;4.90;;;2.60;;
17510;SDS011;8873;48.818;9.422;2022-09-28T11:23:43;5.88;;;2.42;;
17510;SDS011;8873;48.818;9.422;2022-09-28T11:26:21;4.00;;;2.17;;
17510;SDS011;8873;48.818;9.422;2022-09-28T11:28:49;6.88;;;2.20;;
17510;SDS011;8873;48.818;9.422;2022-09-28T11:31:22;3.95;;;1.92;;
17510;SDS011;8873;48.818;9.422;2022-09-28T11:33:51;4.60;;;2.05;;
17510;SDS011;8873;48.818;9.422;2022-09-28T11:36:29;4.57;;;2.20;;
17510;SDS011;8873;48.818;9.422;2022-09-28T11:39:03;3.42;;;2.05;;
17510;SDS011;8873;48.818;9.422;2022-09-28T11:41:47;1.70;;;1.60;;
17510;SDS011;8873;48.818;9.422;2022-09-28T11:44:21;1.95;;;1.75;;
17510;SDS011;8873;48.818;9.422;2022-09-28T11:46:55;2.05;;;1.90;;
17510;SDS011;8873;48.818;9.422;2022-09-28T11:49:30;3.70;;;2.00;;
17510;SDS011;8873;48.818;9.422;2022-09-28T11:52:01;5.80;;;1.80;;
17510;SDS011;8873;48.818;9.422;2022-09-28T11:54:34;3.28;;;2.00;;
17510;SDS011;8873;48.818;9.422;2022-09-28T11:57:02;3.97;;;2.20;;
17510;SDS011;8873;48.818;9.422;2022-09-28T11:59:31;2.50;;;1.50;;
17510;SDS011;8873;48.818;9.422;2022-09-28T12:02:00;5.03;;;1.92;;
17510;SDS011;8873;48.818;9.422;2022-09-28T12:04:30;4.55;;;1.80;;
17510;SDS011;8873;48.818;9.422;2022-09-28T12:07:01;2.63;;;1.70;;
17510;SDS011;8873;48.818;9.422;2022-09-28T12:09:31;2.65;;;1.67;;
17510;SDS011;8873;48.818;9.422;2022-09-28T12:12:05;5.07;;;1.80;;
17510;SDS011;8873;48.818;9.422;2022-09-28T12:14:37;8.88;;;1.70;;
17510;SDS011;8873;48.818;9.422;2022-09-28T12:17:06;1.80;;;1.70;;
17510;SDS011;8873;48.818;9.422;2022-09-28T12:19:37;4.93;;;1.98;;
17510;SDS011;8873;48.818;9.422;2022-09-28T12:22:09;2.35;;;1.42;;
17510;SDS011;8873;48.818;9.422;2022-09-28T12:24:40;4.05;;;1.60;;
17510;SDS011;8873;48.818;9.422;2022-09-28T12:27:12;6.80;;;1.95;;
17510;SDS011;8873;48.818;9.422;2022-09-28T12:29:42;4.88;;;1.90;;
17510;SDS011;8873;48.818;9.422;2022-09-28T12:32:24;4.32;;;1.60;;
17510;SDS011;8873;48.818;9.422;2022-09-28T12:34:53;5.43;;;1.80;;
17510;SDS011;8873;48.818;9.422;2022-09-28T12:37:26;2.08;;;1.67;;
17510;SDS011;8873;48.818;9.422;2022-09-28T12:40:00;3.88;;;1.75;;
17510;SDS011;8873;48.818;9.422;2022-09-28T12:42:37;3.97;;;1.90;;
17510;SDS011;8873;48.818;9.422;2022-09-28T12:45:19;4.00;;;1.60;;
17510;SDS011;8873;48.818;9.422;2022-09-28T12:47:58;1.77;;;1.60;;
17510;SDS011;8873;48.818;9.422;2022-09-28T12:50:29;2.67;;;1.58;;
17510;SDS011;8873;48.818;9.422;2022-09-28T12:53:14;1.75;;;1.50;;
17510;SDS011;8873;48.818;9.422;2022-09-28T12:55:48;6.75;;;1.90;;
17510;SDS011;8873;48.818;9.422;2022-09-28T12:58:27;2.20;;;1.40;;
17510;SDS011;8873;48.818;9.422;2022-09-28T13:00:57;6.50;;;2.67;;
17510;SDS011;8873;48.818;9.422;2022-09-28T13:03:40;2.08;;;1.60;;
17510;SDS011;8873;48.818;9.422;2022-09-28T13:06:14;2.45;;;1.40;;
17510;SDS011;8873;48.818;9.422;2022-09-28T13:08:46;3.10;;;1.67;;
17510;SDS011;8873;48.818;9.422;2022-09-28T13:11:18;3.10;;;1.50;;
17510;SDS011;8873;48.818;9.422;2022-09-28T13:13:53;1.70;;;1.60;;
17510;SDS011;8873;48.818;9.422;2022-09-28T13:16:23;1.95;;;1.85;;
17510;SDS011;8873;48.818;9.422;2022-09-28T13:18:55;6.40;;;1.58;;
17510;SDS011;8873;48.818;9.422;2022-09-28T13:21:26;4.80;;;2.47;;
17510;SDS011;8873;48.818;9.422;2022-09-28T13:23:57;2.53;;;1.52;;
17510;SDS011;8873;48.818;9.422;2022-09-28T13:26:46;2.80;;;1.50;;
17510;SDS011;8873;48.818;9.422;2022-09-28T13:29:18;2.85;;;1.60;;
17510;SDS011;8873;48.818;9.422;2022-09-28T13:31:49;1.60;;;1.50;;
17510;SDS011;8873;48.818;9.422;2022-09-28T13:34:18;6.97;;;1.60;;
17510;SDS011;8873;48.818;9.422;2022-09-28T13:39:34;3.60;;;1.40;;
17510;SDS011;8873;48.818;9.422;2022-09-28T13:42:03;1.65;;;1.38;;
17510;SDS011;8873;48.818;9.422;2022-09-28T13:44:38;4.57;;;1.38;;
17510;SDS011;8873;48.818;9.422;2022-09-28T13:47:14;3.92;;;1.35;;
17510;SDS011;8873;48.818;9.422;2022-09-28T13:49:50;5.38;;;1.40;;
17510;SDS011;8873;48.818;9.422;2022-09-28T13:52:25;3.75;;;1.90;;
17510;SDS011;8873;48.818;9.422;2022-09-28T13:55:01;1.85;;;1.50;;
17510;SDS011;8873;48.818;9.422;2022-09-28T13:57:30;2.22;;;1.23;;
17510;SDS011;8873;48.818;9.422;2022-09-28T14:00:07;2.13;;;1.50;;
17510;SDS011;8873;48.818;9.422;2022-09-28T14:02:38;2.20;;;1.50;;
17510;SDS011;8873;48.818;9.422;2022-09-28T14:07:54;3.33;;;1.50;;
17510;SDS011;8873;48.818;9.422;2022-09-28T14:10:23;2.13;;;1.63;;
17510;SDS011;8873;48.818;9.422;2022-09-28T14:13:10;2.90;;;1.55;;
17510;SDS011;8873;48.818;9.422;2022-09-28T14:15:40;5.25;;;1.35;;
17510;SDS011;8873;48.818;9.422;2022-09-28T14:18:10;1.40;;;1.30;;
17510;SDS011;8873;48.818;9.422;2022-09-28T14:20:40;3.92;;;1.60;;
17510;SDS011;8873;48.818;9.422;2022-09-28T14:23:17;2.25;;;1.30;;
17510;SDS011;8873;48.818;9.422;2022-09-28T14:25:57;3.42;;;1.65;;
17510;SDS011;8873;48.818;9.422;2022-09-28T14:28:37;3.78;;;1.50;;
17510;SDS011;8873;48.818;9.422;2022-09-28T14:31:13;3.15;;;1.98;;
17510;SDS011;8873;48.818;9.422;2022-09-28T14:33:41;1.73;;;1.42;;
17510;SDS011;8873;48.818;9.422;2022-09-28T14:36:21;2.42;;;1.40;;
17510;SDS011;8873;48.818;9.422;2022-09-28T14:39:18;2.13;;;1.45;;
17510;SDS011;8873;48.818;9.422;2022-09-28T14:42:08;1.95;;;1.80;;
17510;SDS011;8873;48.818;9.422;2022-09-28T14:47:34;1.40;;;1.40;;
17510;SDS011;8873;48.818;9.422;2022-09-28T14:50:16;1.75;;;1.45;;
17510;SDS011;8873;48.818;9.422;2022-09-28T14:52:47;3.25;;;1.58;;
17510;SDS011;8873;48.818;9.422;2022-09-28T14:55:18;4.25;;;1.63;;
17510;SDS011;8873;48.818;9.422;2022-09-28T14:58:02;2.40;;;1.20;;
17510;SDS011;8873;48.818;9.422;2022-09-28T15:00:34;1.40;;;1.30;;
17510;SDS011;8873;48.818;9.422;2022-09-28T15:03:09;1.60;;;1.42;;
17510;SDS011;8873;48.818;9.422;2022-09-28T15:05:45;2.35;;;1.50;;
17510;SDS011;8873;48.818;9.422;2022-09-28T15:08:13;3.38;;;1.58;;
17510;SDS011;8873;48.818;9.422;2022-09-28T15:10:43;3.03;;;1.50;;
17510;SDS011;8873;48.818;9.422;2022-09-28T15:13:16;1.95;;;1.52;;
17510;SDS011;8873;48.818;9.422;2022-09-28T15:15:46;1.70;;;1.60;;
17510;SDS011;8873;48.818;9.422;2022-09-28T15:18:22;2.25;;;1.60;;
17510;SDS011;8873;48.818;9.422;2022-09-28T15:20:52;1.42;;;1.40;;
17510;SDS011;8873;48.818;9.422;2022-09-28T15:23:24;2.92;;;1.60;;
17510;SDS011;8873;48.818;9.422;2022-09-28T15:25:53;3.85;;;1.50;;
17510;SDS011;8873;48.818;9.422;2022-09-28T15:28:22;2.05;;;1.52;;
17510;SDS011;8873;48.818;9.422;2022-09-28T15:30:50;1.58;;;1.45;;
17510;SDS011;8873;48.818;9.422;2022-09-28T15:33:23;3.25;;;1.50;;
17510;SDS011;8873;48.818;9.422;2022-09-28T15:36:09;1.52;;;1.42;;
17510;SDS011;8873;48.818;9.422;2022-09-28T15:38:39;2.63;;;1.60;;